Historyczne dane pomiarowe

Dodano dane terminowe – wersja testowa.

Dane z okresu 1951-2019

Wersja bazy: 1.34 [2019-03-16, lista zmian], aktualizacja planowana na 2019-04-15

Dane meteo z obszaru Polski uzyskane na podstawie danych udostępnionych przez Instytut Meteorologii i Gospodarki Wodnej – Państwowy Instytut Badawczy.

 

Wybierz Datę:    

       

TemperaturaWilgotnośćWiatrCiśnienieOpadyŚniegCzas trwania zjawisk
 Stacja t tx tn tng RH VA  wxwx mslp ppp RRR   cm mm wxwxwxwxwxwxwx
2012-10-10 6.9 11.4 3.8 2.8-- 5.3 0.3---- 0.0------------
2012-10-09 7.0 15.0 -0.7 -0.5-- 1.7 0.7---- 0.0------------
2012-10-08 7.5 12.2 4.9 5.7-- 8.0 1.0---- 0.9------------
2012-10-07 9.7 17.5 4.8 5.4-- 8.0 1.3---- 20.8------------
2012-10-06 15.6 23.0 10.0 8.0-- 2.0 1.3---- 0.6------------
2012-10-05 10.0 17.5 3.6 3.5-- 4.0 0.7---- 0.0------------
2012-10-04 11.6 21.1 4.5 4.2-- 4.0 0.3---- 7.6------------
2012-10-03 11.8 18.9 7.9 7.0-- 4.7 0.0---- 0.0------------
2012-10-02 14.0 19.0 10.8 10.1-- 8.0 0.0---- 31.6------------
2012-10-01 13.5 24.5 4.9 5.0-- 5.3 0.3---- 0.1------------
2012-09-30 10.6 16.6 6.9 6.4-- 5.0 0.3---- 0.0------------
2012-09-29 10.9 20.6 3.0 2.6-- 5.0 0.3---- 28.9------------
2012-09-28 11.3 17.5 8.5 7.5-- 2.3 0.0---- 0.0------------
2012-09-27 17.2 21.8 12.6 12.3-- 7.7 1.0---- 2.1------------
2012-09-26 16.5 23.2 6.7 6.4-- 3.7 0.7---- 0.0------------
2012-09-25 13.1 19.5 8.7 8.5-- 4.7 0.7---- 0.4------------
2012-09-24 12.4 22.1 3.0 3.2-- 4.7 0.7---- 0.6------------
2012-09-23 7.2 15.3 1.7 1.5-- 3.0 0.3---- 0.0------------
2012-09-22 10.2 17.0 2.2 1.8-- 5.7 0.7---- 1.4------------
2012-09-21 6.4 15.7 -0.4 0.4-- 3.0 0.3---- 0.1------------
2012-09-20 8.5 12.6 6.2 5.8-- 7.3 0.7---- 0.0------------
2012-09-19 13.2 19.2 7.9 8.5-- 7.3 0.7---- 17.3------------
2012-09-18 12.9 22.4 6.7 6.4-- 2.7 0.3---- 0.0------------
2012-09-17 10.9 21.1 3.4 3.3-- 1.0 0.3---- 0.0------------
2012-09-16 11.8 16.0 9.0 9.4-- 7.3 0.3---- 0.0------------
2012-09-15 9.8 15.0 4.9 4.7-- 8.0 0.0---- 0.0------------
2012-09-14 10.6 13.6 7.9 8.4-- 8.0 0.0---- 0.3------------
2012-09-13 9.8 13.5 7.7 8.4-- 8.0 1.0---- 31.6------------
2012-09-12 16.6 23.8 12.5 11.2-- 7.7 0.0---- 12.4------------
2012-09-11 16.9 28.1 8.2 7.3-- 0.3 0.3---- 0.0------------
2012-09-10 15.6 26.9 6.9 6.1-- 2.7 0.3---- 0.0------------
2012-09-09 15.3 23.0 10.4 9.8-- 3.0 0.3---- 0.0------------
2012-09-08 14.6 18.6 11.7 12.2-- 8.0 0.0---- 0.6------------
2012-09-07 11.3 20.0 2.6 2.4-- 6.0 0.7---- 0.6------------
2012-09-06 13.1 18.3 10.3 8.2-- 6.3 0.7---- 0.3------------
2012-09-05 15.5 23.4 8.9 8.6-- 4.3 0.3---- 0.6------------
2012-09-04 16.8 23.6 11.9 11.6-- 3.3 0.3---- 0.0------------
2012-09-03 16.1 18.8 13.4 14.1-- 8.0 0.3---- 0.0------------
2012-09-02 16.7 19.7 14.0 14.0-- 6.3 0.0---- 0.1------------
2012-09-01 15.5 18.0 13.5 14.2-- 8.0 0.7---- 0.9------------
2012-08-31 18.0 25.1 10.2 9.4-- 7.3 0.7---- 1.2------------
2012-08-30 16.7 28.0 8.5 7.9-- 1.7 0.3---- 0.0------------
2012-08-29 15.3 24.7 7.5 7.6-- 7.0 0.0---- 0.0------------
2012-08-28 12.2 23.7 3.7 3.8-- 0.3 0.3---- 0.0------------
2012-08-27 13.6 18.1 11.4 10.3-- 5.7 1.0---- 0.2------------
2012-08-26 16.8 19.6 14.4 13.7-- 8.0 0.7---- 9.2------------
2012-08-25 19.0 23.9 14.6 14.7-- 7.3 0.0---- 0.4------------
2012-08-24 21.2 30.4 13.5 13.4-- 3.7 0.3---- 3.5------------
2012-08-23 19.6 27.1 13.5 13.3-- 4.3 0.3---- 0.0------------
2012-08-22 21.9 30.8 13.9 13.3-- 4.0 0.3---- 0.0------------
2012-08-21 21.9 28.2 15.3 14.5-- 7.3 0.3---- 0.1------------
2012-08-20 21.1 33.5 11.3 10.4-- 0.0 0.0---- 0.0------------
2012-08-19 17.3 29.0 7.4 7.2-- 0.0 0.0---- 0.0------------
2012-08-18 15.9 24.8 8.5 8.5-- 2.3 0.3---- 0.0------------
2012-08-17 15.7 19.6 11.0 11.0-- 7.7 0.3---- 0.5------------
2012-08-16 14.4 23.2 6.1 6.4-- 3.0 0.3---- 0.0------------
2012-08-15 12.7 21.5 6.4 6.6-- 3.0 0.3---- 0.0------------
2012-08-14 11.4 16.3 5.5 5.7-- 8.0 0.3---- 3.3------------
2012-08-13 12.7 19.7 6.8 7.7-- 4.7 0.7---- 0.0------------
2012-08-12 13.3 16.5 10.2 10.4-- 8.0 0.0---- 2.8------------
221.4 ms

 

Źródłem pochodzenia danych jest Instytut Meteorologii i Gospodarki Wodnej – Państwowy Instytut Badawczy. Dane Instytutu Meteorologii i Gospodarki Wodnej – Państwowego Instytutu Badawczego zostały przetworzone.

Dane źródłowe można odnaleźć na stronie https://dane.imgw.pl